Time;durP1;ratioP1;P1;durP2;ratioP2;P2;SDS_P1;SDS_P2;PMS_P1;PMS_P2;Temp;Humidity;BMP_temperature;BMP_pressure;BME280_temperature;BME280_humidity;BME280_pressure;Samples;Min_cycle;Max_cycle;Signal;HPM_P1;HPM_P2
2022/05/18 00:02:00;;;;;;;9.18;7.40;;;460.90;2380.80;;;;;;5014938;28;20109;-77
2022/05/18 00:04:29;;;;;;;16.75;8.77;;;460.90;2380.80;;;;;;5015003;28;20032;-77
2022/05/18 00:06:55;;;;;;;13.82;8.02;;;461.00;2380.80;;;;;;5013248;28;20097;-76
2022/05/18 00:09:21;;;;;;;12.93;7.30;;;461.00;2380.80;;;;;;5013549;28;20069;-78
2022/05/18 00:11:47;;;;;;;12.95;8.57;;;460.90;2380.80;;;;;;5014844;28;20477;-77
2022/05/18 00:14:12;;;;;;;8.80;7.22;;;460.90;2380.80;;;;;;5014083;28;20044;-77
2022/05/18 00:16:38;;;;;;;12.13;8.18;;;460.90;2380.80;;;;;;5011166;28;20033;-77
2022/05/18 00:19:04;;;;;;;14.35;8.07;;;460.80;2380.80;;;;;;5007859;28;20030;-78
2022/05/18 00:21:31;;;;;;;11.20;8.10;;;460.80;2380.80;;;;;;5013284;28;20053;-77
2022/05/18 00:23:58;;;;;;;15.73;8.98;;;460.80;2380.80;;;;;;5014180;28;20545;-78
2022/05/18 00:26:25;;;;;;;17.77;9.80;;;460.90;2380.80;;;;;;5014258;28;20096;-77
2022/05/18 00:28:51;;;;;;;13.90;8.95;;;460.80;2380.80;;;;;;5014578;28;20092;-78
2022/05/18 00:31:18;;;;;;;12.15;8.77;;;436.10;2355.20;;;;;;5013173;28;20033;-77
2022/05/18 00:33:45;;;;;;;10.63;8.13;;;460.90;2380.80;;;;;;5014425;28;20030;-77
2022/05/18 00:36:11;;;;;;;12.10;8.50;;;436.00;2355.20;;;;;;5013066;28;20022;-78
2022/05/18 00:38:37;;;;;;;12.30;10.32;;;436.00;2355.20;;;;;;5012982;28;20109;-77
2022/05/18 00:41:03;;;;;;;13.27;9.77;;;435.90;2355.20;;;;;;5014503;28;20041;-76
2022/05/18 00:43:28;;;;;;;15.00;9.60;;;435.60;2355.20;;;;;;5012831;28;20124;-76
2022/05/18 00:45:54;;;;;;;12.65;11.30;;;435.50;2355.20;;;;;;5014089;28;20108;-77
2022/05/18 00:48:20;;;;;;;15.98;11.52;;;435.20;2355.20;;;;;;5014442;28;20036;-77
2022/05/18 00:50:47;;;;;;;16.45;12.65;;;435.20;2355.20;;;;;;5014133;28;20025;-77
2022/05/18 00:53:45;;;;;;;15.30;10.90;;;435.20;2355.20;;;;;;5012518;28;20030;-78
2022/05/18 00:56:19;;;;;;;13.90;11.27;;;410.50;2355.20;;;;;;5001224;28;20038;-77
2022/05/18 00:58:58;;;;;;;14.68;12.90;;;410.40;2355.20;;;;;;5013904;28;20021;-78
2022/05/18 01:01:24;;;;;;;18.48;13.70;;;410.40;2355.20;;;;;;5013573;28;20390;-78
2022/05/18 01:03:52;;;;;;;16.90;12.98;;;435.20;2355.20;;;;;;5013761;28;20038;-77
2022/05/18 01:06:27;;;;;;;18.60;13.77;;;435.20;2355.20;;;;;;5012284;28;20069;-77
2022/05/18 01:09:19;;;;;;;13.40;11.15;;;410.50;2355.20;;;;;;5013587;28;20081;-77
2022/05/18 01:11:46;;;;;;;16.00;13.25;;;410.40;2355.20;;;;;;4989407;28;20038;-77
2022/05/18 01:14:36;;;;;;;15.25;12.57;;;410.50;2355.20;;;;;;5013261;28;20056;-76
2022/05/18 01:17:02;;;;;;;13.57;11.52;;;410.50;2355.20;;;;;;5013596;28;20022;-77
2022/05/18 01:19:37;;;;;;;15.50;11.77;;;435.20;2355.20;;;;;;5013392;28;20026;-77
2022/05/18 01:22:39;;;;;;;16.98;13.27;;;410.50;2355.20;;;;;;5013487;28;20033;-78
2022/05/18 01:25:15;;;;;;;17.77;13.02;;;410.50;2355.20;;;;;;5007238;28;20389;-77
2022/05/18 01:27:40;;;;;;;18.83;14.70;;;435.20;2355.20;;;;;;5011922;28;20465;-77
2022/05/18 01:30:08;;;;;;;15.77;12.60;;;435.20;2355.20;;;;;;5012856;28;20084;-77
2022/05/18 01:32:41;;;;;;;16.38;13.10;;;435.20;2355.20;;;;;;5011585;28;20080;-77
2022/05/18 01:35:09;;;;;;;18.55;13.38;;;435.30;2355.20;;;;;;5011930;28;20026;-77
2022/05/18 01:37:35;;;;;;;20.08;14.40;;;435.30;2355.20;;;;;;5013236;28;20038;-77
2022/05/18 01:40:08;;;;;;;17.17;15.32;;;435.40;2355.20;;;;;;5012945;28;20060;-78
2022/05/18 01:42:37;;;;;;;15.48;13.73;;;435.50;2355.20;;;;;;5011430;28;20088;-78
2022/05/18 01:45:04;;;;;;;16.23;13.65;;;435.50;2355.20;;;;;;5013087;28;20477;-78
2022/05/18 01:47:37;;;;;;;19.33;13.70;;;435.40;2355.20;;;;;;5012996;28;20026;-77
2022/05/18 01:50:07;;;;;;;17.92;14.65;;;435.40;2355.20;;;;;;5012953;28;20072;-77
2022/05/18 01:52:33;;;;;;;20.45;14.90;;;435.30;2355.20;;;;;;5011648;28;20026;-75
2022/05/18 01:54:59;;;;;;;16.90;12.85;;;435.40;2355.20;;;;;;5012689;28;20448;-75
2022/05/18 01:57:25;;;;;;;17.52;15.05;;;435.30;2355.20;;;;;;5011437;28;20367;-75
2022/05/18 01:59:50;;;;;;;16.20;13.80;;;435.40;2355.20;;;;;;5013072;28;20076;-75
2022/05/18 02:02:19;;;;;;;15.57;13.05;;;435.40;2355.20;;;;;;5012586;28;20033;-75
2022/05/18 02:04:45;;;;;;;16.35;12.30;;;435.40;2355.20;;;;;;5012333;28;20420;-76
2022/05/18 02:07:11;;;;;;;15.25;12.32;;;435.40;2355.20;;;;;;5012285;28;20052;-79
2022/05/18 02:09:37;;;;;;;15.95;13.35;;;435.30;2355.20;;;;;;5011461;28;20037;-79
2022/05/18 02:12:06;;;;;;;17.65;13.35;;;435.40;2355.20;;;;;;5011390;28;20474;-78
2022/05/18 02:14:32;;;;;;;14.65;12.90;;;435.30;2355.20;;;;;;5012447;28;20080;-78
2022/05/18 02:16:57;;;;;;;15.65;13.65;;;435.40;2355.20;;;;;;5011556;28;20025;-78
2022/05/18 02:19:23;;;;;;;16.85;13.20;;;435.40;2355.20;;;;;;5010310;28;20033;-79
2022/05/18 02:21:49;;;;;;;17.25;13.80;;;435.30;2355.20;;;;;;5010303;28;20025;-79
2022/05/18 02:24:16;;;;;;;16.10;13.60;;;435.30;2355.20;;;;;;5010267;28;20049;-77
2022/05/18 02:26:42;;;;;;;15.93;12.82;;;435.30;2355.20;;;;;;5011263;28;20481;-79
2022/05/18 02:29:08;;;;;;;15.43;13.63;;;435.30;2355.20;;;;;;5011639;28;20033;-79
2022/05/18 02:31:34;;;;;;;14.77;13.20;;;435.40;2355.20;;;;;;5011012;28;20026;-79
2022/05/18 02:34:00;;;;;;;16.42;13.38;;;435.50;2355.20;;;;;;5012132;28;20469;-79
2022/05/18 02:36:26;;;;;;;14.02;12.52;;;435.40;2355.20;;;;;;5010944;28;20477;-78
2022/05/18 02:38:52;;;;;;;17.30;13.80;;;435.50;2355.20;;;;;;5011726;28;20033;-79
2022/05/18 02:41:18;;;;;;;16.15;14.45;;;435.50;2355.20;;;;;;5012275;28;20026;-78
2022/05/18 02:43:44;;;;;;;15.52;13.73;;;435.50;2355.20;;;;;;5012239;28;20037;-78
2022/05/18 02:46:18;;;;;;;22.40;15.80;;;435.60;2355.20;;;;;;5012351;28;20111;-77
2022/05/18 02:48:45;;;;;;;16.20;13.65;;;435.50;2355.20;;;;;;5012191;28;20032;-77
2022/05/18 02:51:12;;;;;;;16.60;13.70;;;435.50;2355.20;;;;;;5010833;28;20388;-77
2022/05/18 02:53:38;;;;;;;19.50;14.40;;;435.50;2355.20;;;;;;5012349;28;20018;-77
2022/05/18 02:56:08;;;;;;;16.75;14.77;;;435.40;2355.20;;;;;;5011826;28;20105;-78
2022/05/18 02:58:48;;;;;;;16.42;11.02;;;435.40;2355.20;;;;;;5012282;28;20029;-77
2022/05/18 03:01:23;;;;;;;17.15;12.75;;;435.40;2355.20;;;;;;5012035;28;20560;-77
2022/05/18 03:03:51;;;;;;;16.58;13.63;;;435.30;2355.20;;;;;;5010367;28;20038;-78
2022/05/18 03:06:22;;;;;;;16.50;12.75;;;435.30;2355.20;;;;;;5011700;28;20151;-78
2022/05/18 03:08:48;;;;;;;15.80;13.77;;;435.40;2355.20;;;;;;5011620;28;20064;-78
2022/05/18 03:11:15;;;;;;;19.05;15.23;;;435.40;2355.20;;;;;;5012035;28;20028;-78
2022/05/18 03:13:41;;;;;;;15.55;13.98;;;435.50;2355.20;;;;;;5011883;28;20030;-77
2022/05/18 03:16:07;;;;;;;23.38;13.75;;;435.40;2355.20;;;;;;5011551;28;20053;-78
2022/05/18 03:18:33;;;;;;;20.42;13.00;;;435.40;2355.20;;;;;;5010594;28;20022;-78
2022/05/18 03:23:45;;;;;;;13.13;10.98;;;435.50;2355.20;;;;;;5011744;28;20080;-78
2022/05/18 03:26:13;;;;;;;14.95;11.57;;;435.50;2355.20;;;;;;5011856;28;20023;-78
2022/05/18 03:28:41;;;;;;;20.85;13.05;;;435.50;2355.20;;;;;;5012026;28;20028;-78
2022/05/18 03:31:08;;;;;;;15.23;13.40;;;435.60;2355.20;;;;;;5011679;28;20457;-79
2022/05/18 03:33:34;;;;;;;16.58;13.00;;;435.60;2355.20;;;;;;5010544;28;20084;-77
2022/05/18 03:36:01;;;;;;;13.32;11.93;;;435.70;2355.20;;;;;;5011807;28;20033;-78
2022/05/18 03:38:27;;;;;;;15.88;13.90;;;435.60;2355.20;;;;;;5011751;28;20030;-78
2022/05/18 03:40:53;;;;;;;15.50;13.57;;;435.50;2355.20;;;;;;5011333;28;20448;-78
2022/05/18 03:43:20;;;;;;;17.42;15.38;;;435.30;2355.20;;;;;;5011575;28;20042;-78
2022/05/18 03:45:46;;;;;;;20.60;14.43;;;435.30;2355.20;;;;;;5011341;28;20022;-78
2022/05/18 03:48:14;;;;;;;16.70;15.00;;;435.20;2355.20;;;;;;5010352;28;20370;-78
2022/05/18 03:50:42;;;;;;;18.00;15.77;;;410.50;2355.20;;;;;;5013181;28;20080;-78
2022/05/18 03:53:08;;;;;;;18.42;16.63;;;410.50;2355.20;;;;;;5015304;28;20026;-78
2022/05/18 03:55:35;;;;;;;21.77;17.50;;;410.50;2355.20;;;;;;5015386;28;20110;-78
2022/05/18 03:58:01;;;;;;;20.15;18.05;;;435.20;2355.20;;;;;;5015122;28;20470;-78
2022/05/18 04:00:27;;;;;;;20.40;17.70;;;435.30;2355.20;;;;;;5014623;28;20108;-78
2022/05/18 04:02:53;;;;;;;21.95;18.55;;;435.30;2355.20;;;;;;5013002;28;20477;-77
2022/05/18 04:05:20;;;;;;;23.55;17.60;;;435.30;2355.20;;;;;;5013715;28;20033;-78
2022/05/18 04:07:46;;;;;;;17.50;15.80;;;435.40;2355.20;;;;;;5012991;28;20061;-79
2022/05/18 04:10:14;;;;;;;24.25;18.38;;;435.50;2355.20;;;;;;5013465;28;20091;-80
2022/05/18 04:12:41;;;;;;;20.80;18.70;;;435.60;2355.20;;;;;;5014247;28;20070;-79
2022/05/18 04:15:07;;;;;;;17.23;15.30;;;435.60;2355.20;;;;;;5014464;28;20072;-81
2022/05/18 04:17:35;;;;;;;17.42;12.20;;;435.70;2355.20;;;;;;5014675;28;20029;-80
2022/05/18 04:20:03;;;;;;;18.77;15.05;;;435.70;2355.20;;;;;;5013638;28;20022;-78
2022/05/18 04:22:30;;;;;;;21.75;17.02;;;435.80;2355.20;;;;;;5012649;28;20048;-77
2022/05/18 04:24:55;;;;;;;18.98;17.17;;;435.90;2355.20;;;;;;5013516;28;20026;-78
2022/05/18 04:27:21;;;;;;;19.33;17.33;;;436.00;2355.20;;;;;;5013579;28;20072;-78
2022/05/18 04:29:47;;;;;;;16.95;15.23;;;436.00;2355.20;;;;;;5013175;28;20436;-78
2022/05/18 04:32:12;;;;;;;17.60;15.70;;;436.00;2355.20;;;;;;5013449;28;20086;-79
2022/05/18 04:34:38;;;;;;;17.75;16.13;;;436.00;2355.20;;;;;;5013275;28;20476;-78
2022/05/18 04:37:04;;;;;;;20.92;17.25;;;436.00;2355.20;;;;;;5012011;28;20031;-78
2022/05/18 04:39:30;;;;;;;23.13;14.85;;;436.10;2355.20;;;;;;5011747;28;20022;-78
2022/05/18 04:41:56;;;;;;;19.05;15.98;;;436.10;2355.20;;;;;;4995544;28;20462;-78
2022/05/18 04:44:22;;;;;;;15.88;14.30;;;436.10;2355.20;;;;;;4995634;28;20030;-78
2022/05/18 04:46:47;;;;;;;18.17;15.73;;;436.10;2355.20;;;;;;5013107;28;20440;-78
2022/05/18 04:49:13;;;;;;;17.48;13.85;;;436.00;2355.20;;;;;;5013677;28;20025;-79
2022/05/18 04:51:39;;;;;;;18.20;16.23;;;436.00;2355.20;;;;;;5013492;28;20030;-78
2022/05/18 04:54:06;;;;;;;17.88;16.17;;;435.90;2355.20;;;;;;5013608;28;20396;-77
2022/05/18 04:56:31;;;;;;;19.40;17.10;;;435.70;2355.20;;;;;;5013606;28;20026;-78
2022/05/18 04:58:57;;;;;;;20.45;18.55;;;435.50;2355.20;;;;;;5010320;28;20026;-77
2022/05/18 05:01:30;;;;;;;15.13;12.40;;;435.40;2355.20;;;;;;5013191;28;20052;-77
2022/05/18 05:03:55;;;;;;;13.88;10.68;;;435.20;2355.20;;;;;;5013643;28;20521;-77
2022/05/18 05:06:21;;;;;;;4.80;4.22;;;409.90;2355.20;;;;;;5013537;28;20054;-78
2022/05/18 05:08:47;;;;;;;5.53;3.88;;;384.20;2329.60;;;;;;5012346;28;20034;-77
2022/05/18 05:11:13;;;;;;;9.27;4.95;;;384.00;2329.60;;;;;;5013533;28;20440;-77
2022/05/18 05:13:38;;;;;;;9.05;4.78;;;384.00;2329.60;;;;;;5012095;28;20071;-77
2022/05/18 05:16:07;;;;;;;10.05;6.47;;;359.30;2329.60;;;;;;5013433;28;20357;-77
2022/05/18 05:18:33;;;;;;;12.27;7.97;;;384.00;2329.60;;;;;;5011690;28;20132;-77
2022/05/18 05:20:59;;;;;;;14.43;9.52;;;384.00;2329.60;;;;;;5012387;28;20030;-77
2022/05/18 05:23:26;;;;;;;17.10;10.82;;;384.00;2329.60;;;;;;5012201;28;20034;-77
2022/05/18 05:25:52;;;;;;;15.43;8.88;;;384.10;2329.60;;;;;;5013371;28;20022;-77
2022/05/18 05:28:18;;;;;;;12.05;7.47;;;384.00;2329.60;;;;;;5013365;28;20037;-77
2022/05/18 05:30:44;;;;;;;14.25;9.38;;;359.30;2329.60;;;;;;5012393;28;20104;-77
2022/05/18 05:33:11;;;;;;;13.02;9.60;;;359.30;2329.60;;;;;;5012705;28;20397;-78
2022/05/18 05:35:41;;;;;;;14.70;10.07;;;384.00;2329.60;;;;;;5011601;28;20030;-78
2022/05/18 05:38:08;;;;;;;13.02;8.25;;;384.00;2329.60;;;;;;5012699;28;20053;-78
2022/05/18 05:40:34;;;;;;;10.27;7.80;;;359.30;2329.60;;;;;;5013111;28;20073;-78
2022/05/18 05:43:08;;;;;;;14.65;10.52;;;359.30;2329.60;;;;;;5011590;28;20077;-78
2022/05/18 05:45:34;;;;;;;;;;;384.00;2329.60;;;;;;5013033;28;20026;-77
2022/05/18 05:47:59;;;;;;;12.18;9.95;;;359.30;2329.60;;;;;;5010710;28;19909;-77
2022/05/18 05:50:26;;;;;;;10.95;8.27;;;384.00;2329.60;;;;;;5011051;28;20026;-78
2022/05/18 05:52:52;;;;;;;15.30;9.88;;;359.30;2329.60;;;;;;5010809;28;20026;-78
2022/05/18 05:55:18;;;;;;;9.40;7.80;;;359.30;2329.60;;;;;;5011726;28;20029;-77
2022/05/18 05:57:44;;;;;;;11.75;9.68;;;359.20;2329.60;;;;;;5012337;28;20026;-77
2022/05/18 06:00:10;;;;;;;13.40;8.70;;;359.20;2329.60;;;;;;5011040;28;20033;-78
2022/05/18 06:02:36;;;;;;;13.77;10.07;;;359.20;2329.60;;;;;;5012521;28;20088;-78
2022/05/18 06:05:03;;;;;;;14.50;10.52;;;359.30;2329.60;;;;;;5012696;28;20029;-77
2022/05/18 06:07:30;;;;;;;13.90;10.75;;;359.30;2329.60;;;;;;5012677;28;20133;-78
2022/05/18 06:09:56;;;;;;;18.20;9.75;;;359.30;2329.60;;;;;;5011187;28;20030;-77
2022/05/18 06:12:25;;;;;;;11.57;6.63;;;359.20;2329.60;;;;;;5010803;28;20030;-78
2022/05/18 06:14:50;;;;;;;13.20;9.93;;;359.20;2329.60;;;;;;5012100;28;20030;-77
2022/05/18 06:17:16;;;;;;;13.45;10.60;;;359.20;2329.60;;;;;;5010950;28;20032;-77
2022/05/18 06:19:42;;;;;;;13.57;8.45;;;359.30;2329.60;;;;;;5011118;28;20116;-76
2022/05/18 06:22:08;;;;;;;12.95;8.20;;;359.30;2329.60;;;;;;5012228;28;20026;-77
2022/05/18 06:24:34;;;;;;;7.20;5.57;;;359.20;2329.60;;;;;;5010917;28;20041;-77
2022/05/18 06:27:00;;;;;;;11.65;8.57;;;359.20;2329.60;;;;;;5012195;28;20080;-78
2022/05/18 06:29:26;;;;;;;9.38;5.03;;;359.20;2329.60;;;;;;5012232;28;20022;-78
2022/05/18 06:31:52;;;;;;;8.80;6.55;;;359.20;2329.60;;;;;;5012188;28;20493;-78
2022/05/18 06:34:21;;;;;;;9.38;6.53;;;359.30;2329.60;;;;;;5010904;28;20026;-77
2022/05/18 06:36:48;;;;;;;11.18;8.60;;;384.00;2329.60;;;;;;5012031;28;20025;-77
2022/05/18 06:39:16;;;;;;;18.05;13.85;;;384.00;2329.60;;;;;;5010852;28;20099;-79
2022/05/18 06:41:42;;;;;;;11.75;7.75;;;384.20;2329.60;;;;;;5010978;28;20450;-77
2022/05/18 06:44:07;;;;;;;14.98;10.35;;;384.20;2329.60;;;;;;5012053;28;20493;-78
2022/05/18 06:46:35;;;;;;;13.18;7.45;;;384.30;2329.60;;;;;;5010681;28;20032;-77
2022/05/18 06:49:02;;;;;;;14.75;10.68;;;384.40;2329.60;;;;;;5010768;28;20172;-77
2022/05/18 06:51:32;;;;;;;10.10;5.88;;;384.50;2329.60;;;;;;5010664;28;20030;-76
2022/05/18 06:53:58;;;;;;;12.27;6.40;;;384.30;2329.60;;;;;;5010754;28;20022;-76
2022/05/18 06:56:29;;;;;;;16.95;8.68;;;384.20;2329.60;;;;;;5010609;28;20465;-76
2022/05/18 06:58:55;;;;;;;12.10;6.78;;;384.40;2329.60;;;;;;5011924;28;20407;-76
2022/05/18 07:01:23;;;;;;;8.77;6.07;;;384.30;2329.60;;;;;;5010179;28;20477;-76
2022/05/18 07:03:49;;;;;;;7.32;4.35;;;384.40;2329.60;;;;;;5011777;28;20160;-77
2022/05/18 07:06:18;;;;;;;9.98;6.78;;;384.50;2329.60;;;;;;5010375;28;20132;-76
2022/05/18 07:08:44;;;;;;;7.45;4.95;;;384.40;2329.60;;;;;;5011596;28;20083;-76
2022/05/18 07:11:09;;;;;;;8.75;7.15;;;384.50;2329.60;;;;;;5010149;28;20029;-76
2022/05/18 07:13:37;;;;;;;6.72;4.60;;;384.80;2329.60;;;;;;5011218;28;20022;-77
2022/05/18 07:28:50;;;;;;;10.10;7.72;;;384.70;2329.60;;;;;;5081784;27;20382;-75
2022/05/18 07:31:19;;;;;;;9.40;6.85;;;;;;;;;;5070611;28;20040;-75
2022/05/18 07:33:45;;;;;;;11.10;6.47;;;;;;;;;;5072891;28;20044;-75
2022/05/18 07:36:11;;;;;;;9.00;8.02;;;;;;;;;;5085891;28;20024;-77
2022/05/18 07:38:39;;;;;;;9.73;6.78;;;;;;;;;;5087556;28;20111;-75
2022/05/18 07:41:06;;;;;;;9.10;5.63;;;;;;;;;;5087673;28;20103;-76
2022/05/18 07:43:32;;;;;;;12.48;9.13;;;;;;;;;;5087606;28;20123;-75
2022/05/18 07:45:58;;;;;;;11.75;9.57;;;;;;;;;;5087671;28;20016;-75
2022/05/18 07:48:24;;;;;;;13.50;8.95;;;;;;;;;;5088747;28;20042;-75
2022/05/18 07:50:51;;;;;;;9.02;6.45;;;;;;;;;;5088816;28;20103;-75
2022/05/18 07:53:17;;;;;;;18.77;8.65;;;;;;;;;;5087333;28;20142;-75
2022/05/18 07:55:43;;;;;;;9.40;4.80;;;;;;;;;;5087231;28;20071;-75
2022/05/18 07:58:10;;;;;;;10.90;4.45;;;;;;;;;;5088345;28;20035;-75
2022/05/18 08:00:37;;;;;;;6.32;4.88;;;;;;;;;;5087206;28;20048;-74
2022/05/18 08:03:03;;;;;;;9.43;5.25;;;;;;;;;;5088187;28;20025;-75
2022/05/18 08:05:30;;;;;;;5.43;4.05;;;;;;;;;;5087088;28;20020;-74
2022/05/18 08:07:56;;;;;;;17.13;9.15;;;;;;;;;;5088447;28;20048;-74
2022/05/18 08:15:53;;;;;;;5.68;4.32;;;;;;;;;;5088262;28;20031;-74
2022/05/18 08:18:20;;;;;;;5.85;4.38;;;;;;;;;;5087661;28;20085;-74
2022/05/18 08:20:47;;;;;;;9.02;5.50;;;;;;;;;;5088528;28;20021;-75
2022/05/18 08:23:14;;;;;;;12.82;6.45;;;461.10;2380.80;;;;;;5086672;28;20024;-75
2022/05/18 08:25:40;;;;;;;8.75;3.55;;;461.20;2380.80;;;;;;5086665;28;20024;-76
2022/05/18 08:28:08;;;;;;;5.45;2.97;;;460.90;2380.80;;;;;;5082363;28;20144;-75
2022/05/18 08:30:34;;;;;;;8.23;4.13;;;436.10;2355.20;;;;;;5074356;28;20456;-76
2022/05/18 08:33:01;;;;;;;7.80;3.15;;;460.90;2380.80;;;;;;5073155;28;20546;-75
2022/05/18 08:35:28;;;;;;;9.23;4.57;;;461.10;2380.80;;;;;;5074141;28;20027;-74
2022/05/18 08:37:54;;;;;;;8.60;3.47;;;460.80;2380.80;;;;;;5074173;28;20102;-75
2022/05/18 08:40:28;;;;;;;5.18;3.60;;;461.30;2380.80;;;;;;5074213;28;20494;-75
2022/05/18 08:42:58;;;;;;;11.38;5.03;;;;;;;;;;5073006;28;20029;-75
2022/05/18 08:45:29;;;;;;;6.55;3.42;;;461.50;2380.80;;;;;;5072881;28;20032;-75
2022/05/18 08:47:58;;;;;;;5.88;3.33;;;461.40;2380.80;;;;;;5072781;28;20066;-76
2022/05/18 08:50:24;;;;;;;6.35;3.15;;;461.30;2380.80;;;;;;5074156;28;20475;-75
2022/05/18 08:53:32;;;;;;;4.50;2.70;;;461.30;2380.80;;;;;;5074041;28;20091;-75
2022/05/18 08:56:09;;;;;;;4.82;2.40;;;461.40;2380.80;;;;;;5066593;28;20033;-75
2022/05/18 08:58:40;;;;;;;6.47;3.97;;;461.30;2380.80;;;;;;5073911;28;20037;-75
2022/05/18 09:01:21;;;;;;;7.10;3.88;;;461.70;2380.80;;;;;;5074079;28;20031;-75
2022/05/18 09:04:00;;;;;;;3.90;2.63;;;486.40;2380.80;;;;;;5073899;28;21077;-75
2022/05/18 09:06:46;;;;;;;14.50;4.70;;;486.60;2380.80;;;;;;5073805;28;20086;-76
2022/05/18 09:12:14;;;;;;;8.95;3.90;;;461.60;2380.80;;;;;;5073965;28;20093;-76
2022/05/18 09:14:42;;;;;;;5.07;3.10;;;461.50;2380.80;;;;;;5072247;28;20098;-75
2022/05/18 09:17:31;;;;;;;10.05;3.50;;;461.70;2380.80;;;;;;5072134;28;20123;-75
2022/05/18 09:20:29;;;;;;;6.88;3.70;;;461.60;2380.80;;;;;;5073310;28;20029;-75
2022/05/18 09:23:22;;;;;;;3.53;2.95;;;461.50;2380.80;;;;;;5072384;28;20035;-75
2022/05/18 09:26:06;;;;;;;9.53;3.57;;;461.40;2380.80;;;;;;5072163;28;20581;-75
2022/05/18 09:28:56;;;;;;;6.03;3.78;;;461.50;2380.80;;;;;;5073234;28;20102;-75
2022/05/18 09:31:34;;;;;;;7.18;3.85;;;461.40;2380.80;;;;;;5073189;28;20039;-75
2022/05/18 09:34:33;;;;;;;5.93;2.97;;;461.50;2380.80;;;;;;5073272;28;20035;-75
2022/05/18 09:37:06;;;;;;;5.88;3.00;;;461.40;2380.80;;;;;;5071814;28;20044;-76
2022/05/18 09:39:35;;;;;;;4.10;2.47;;;;;;;;;;5072633;28;20111;-76
2022/05/18 09:42:14;;;;;;;4.85;2.75;;;461.70;2380.80;;;;;;5071344;28;20474;-75
2022/05/18 09:45:02;;;;;;;13.98;4.13;;;461.70;2380.80;;;;;;5072115;28;20449;-75
2022/05/18 09:47:32;;;;;;;4.07;1.90;;;486.40;2355.20;;;;;;5072959;28;20021;-76
2022/05/18 09:50:04;;;;;;;6.45;2.72;;;486.50;2380.80;;;;;;5071672;28;20383;-75
2022/05/18 09:52:31;;;;;;;6.15;2.40;;;486.70;2380.80;;;;;;5072861;28;20033;-76
2022/05/18 09:54:59;;;;;;;4.82;2.53;;;486.50;2022.40;;;;;;5072800;28;20017;-75
2022/05/18 09:57:33;;;;;;;4.63;2.10;;;486.80;2048.00;;;;;;5071216;28;20047;-75
2022/05/18 10:00:21;;;;;;;10.52;2.53;;;486.70;2022.40;;;;;;5072322;28;20035;-75
2022/05/18 10:08:35;;;;;;;10.82;2.15;;;487.10;1971.20;;;;;;5071980;28;20488;-76
2022/05/18 10:11:06;;;;;;;3.58;2.05;;;486.90;2022.40;;;;;;5072457;28;20130;-75
2022/05/18 10:13:35;;;;;;;8.48;3.10;;;486.90;1894.40;;;;;;5072103;28;20448;-76
2022/05/18 10:16:04;;;;;;;6.78;2.70;;;487.10;1843.20;;;;;;5071085;28;20024;-75
2022/05/18 10:18:43;;;;;;;2.50;1.58;;;487.00;1817.60;;;;;;5071252;28;20086;-75
2022/05/18 10:21:12;;;;;;;4.65;2.03;;;487.00;1792.00;;;;;;5078128;28;20498;-76
2022/05/18 10:23:50;;;;;;;4.82;2.78;;;487.10;1766.40;;;;;;5081174;28;20017;-75
2022/05/18 10:26:27;;;;;;;5.85;2.63;;;486.90;1715.20;;;;;;5081568;28;20376;-75
2022/05/18 10:29:07;;;;;;;3.55;2.08;;;486.70;1689.60;;;;;;5075317;28;20135;-76
2022/05/18 10:31:46;;;;;;;6.03;2.38;;;486.80;1664.00;;;;;;5072858;28;20135;-75
2022/05/18 10:34:16;;;;;;;5.00;2.55;;;486.70;1689.60;;;;;;5072336;28;20035;-75
2022/05/18 10:36:48;;;;;;;7.85;1.90;;;486.80;1664.00;;;;;;5071097;28;20047;-75
2022/05/18 10:39:36;;;;;;;5.38;1.80;;;486.70;1638.40;;;;;;5070731;28;20020;-76
2022/05/18 10:42:30;;;;;;;4.32;2.33;;;486.80;1638.40;;;;;;5071596;28;20126;-77
2022/05/18 10:45:00;;;;;;;7.85;2.60;;;487.10;1638.40;;;;;;5068201;28;20087;-75
2022/05/18 10:47:34;;;;;;;15.52;2.80;;;512.40;1561.60;;;;;;5071496;28;20116;-75
2022/05/18 10:50:23;;;;;;;5.72;2.42;;;487.10;1587.20;;;;;;5071358;28;20387;-77
2022/05/18 10:52:50;;;;;;;5.85;2.03;;;487.00;1638.40;;;;;;5071271;28;20052;-76
2022/05/18 10:55:23;;;;;;;2.58;1.55;;;487.20;1612.80;;;;;;5071539;28;20471;-75
2022/05/18 10:58:05;;;;;;;14.82;2.25;;;487.00;1612.80;;;;;;5070376;28;20490;-75
2022/05/18 11:01:02;;;;;;;4.00;2.38;;;487.00;1587.20;;;;;;5071497;28;20094;-75
2022/05/18 11:03:56;;;;;;;6.90;2.97;;;487.00;1612.80;;;;;;5061730;28;20441;-76
2022/05/18 11:06:33;;;;;;;4.63;1.52;;;487.20;1587.20;;;;;;5069952;28;20570;-75
2022/05/18 11:09:00;;;;;;;4.78;2.65;;;512.00;1561.60;;;;;;5071664;28;20082;-76
2022/05/18 11:11:29;;;;;;;6.82;2.67;;;487.20;1536.00;;;;;;5071734;28;20055;-77
2022/05/18 11:14:20;;;;;;;5.25;1.80;;;487.10;1536.00;;;;;;5070669;28;20429;-75
2022/05/18 11:17:24;;;;;;;3.40;1.98;;;486.90;1561.60;;;;;;5071325;28;20475;-76
2022/05/18 11:20:11;;;;;;;7.10;1.92;;;486.90;1612.80;;;;;;5050538;28;20055;-75
2022/05/18 11:23:02;;;;;;;3.03;2.08;;;486.70;1587.20;;;;;;5080687;28;20040;-75
2022/05/18 11:25:30;;;;;;;8.13;1.67;;;486.80;1561.60;;;;;;5080328;28;20029;-75
2022/05/18 11:28:36;;;;;;;4.18;1.55;;;486.50;1536.00;;;;;;5072669;28;20089;-75
2022/05/18 11:31:20;;;;;;;13.05;3.33;;;486.40;1561.60;;;;;;5048718;28;20578;-76
2022/05/18 11:34:12;;;;;;;7.82;2.13;;;487.10;1561.60;;;;;;5066579;28;20037;-76
2022/05/18 11:36:57;;;;;;;5.85;1.83;;;512.10;1536.00;;;;;;5068224;28;20044;-75
2022/05/18 11:39:42;;;;;;;7.43;2.10;;;486.90;1510.40;;;;;;5070117;28;20166;-76
2022/05/18 11:42:35;;;;;;;6.57;2.70;;;487.00;1536.00;;;;;;5071502;28;20108;-76
2022/05/18 11:45:19;;;;;;;9.18;2.25;;;487.30;1510.40;;;;;;5070048;28;20028;-77
2022/05/18 11:47:57;;;;;;;8.00;2.70;;;486.80;1510.40;;;;;;5070037;28;20033;-76
2022/05/18 11:50:57;;;;;;;5.43;2.50;;;512.20;1459.20;;;;;;5069972;28;20478;-76
2022/05/18 11:53:38;;;;;;;9.27;3.50;;;512.00;1510.40;;;;;;5071202;28;20090;-76
2022/05/18 11:56:29;;;;;;;7.10;2.42;;;487.30;1510.40;;;;;;5071041;28;20056;-76
2022/05/18 11:59:52;;;;;;;15.30;2.63;;;512.00;1510.40;;;;;;5070003;28;20039;-76
2022/05/18 12:02:48;;;;;;;10.05;2.30;;;487.10;1536.00;;;;;;5070842;28;20020;-76
2022/05/18 12:05:25;;;;;;;4.78;2.38;;;487.00;1510.40;;;;;;5074835;28;20483;-76
2022/05/18 12:08:30;;;;;;;6.43;2.53;;;487.20;1510.40;;;;;;5073417;28;20039;-76
2022/05/18 12:11:30;;;;;;;10.48;3.80;;;512.00;1484.80;;;;;;5073621;28;20028;-75
2022/05/18 12:14:18;;;;;;;3.90;3.25;;;486.90;1433.60;;;;;;5074796;28;20035;-76
2022/05/18 12:17:01;;;;;;;8.80;4.22;;;487.00;1510.40;;;;;;5073362;28;20064;-76
2022/05/18 12:19:53;;;;;;;4.18;2.47;;;487.00;1484.80;;;;;;5074994;28;20471;-75
2022/05/18 12:22:31;;;;;;;9.32;3.15;;;487.00;1459.20;;;;;;5073525;28;20109;-75
2022/05/18 12:24:58;;;;;;;8.40;2.80;;;487.10;1536.00;;;;;;5074611;28;20028;-77
2022/05/18 12:27:26;;;;;;;9.77;3.72;;;487.10;1510.40;;;;;;5072927;28;20123;-75
2022/05/18 12:29:57;;;;;;;9.40;3.13;;;486.80;1459.20;;;;;;5073068;28;20029;-75
2022/05/18 12:32:24;;;;;;;6.35;2.78;;;486.50;1484.80;;;;;;5074527;28;20031;-76
2022/05/18 12:35:07;;;;;;;16.20;6.00;;;486.70;1459.20;;;;;;5074901;28;20059;-75
2022/05/18 12:37:49;;;;;;;10.10;2.97;;;486.50;1510.40;;;;;;5073069;28;20040;-75
2022/05/18 12:40:15;;;;;;;9.25;4.90;;;;;;;;;;5073108;28;20101;-75
2022/05/18 12:42:47;;;;;;;5.70;4.45;;;;;;;;;;5074308;28;20382;-75
2022/05/18 12:45:27;;;;;;;5.28;2.95;;;486.50;1408.00;;;;;;5072936;28;20027;-75
2022/05/18 12:48:33;;;;;;;4.47;1.70;;;486.60;1459.20;;;;;;5072859;28;20410;-75
2022/05/18 12:51:14;;;;;;;4.35;2.72;;;486.50;1484.80;;;;;;5073054;28;20044;-75
2022/05/18 12:54:18;;;;;;;5.57;3.00;;;486.90;1484.80;;;;;;5074048;28;20117;-75
2022/05/18 12:57:09;;;;;;;10.90;2.80;;;486.60;1484.80;;;;;;5065243;28;20044;-76
2022/05/18 12:59:55;;;;;;;3.35;2.17;;;486.70;1433.60;;;;;;5069450;28;20047;-76
2022/05/18 13:02:47;;;;;;;8.23;2.83;;;486.90;1433.60;;;;;;5072505;28;20032;-76
2022/05/18 13:05:24;;;;;;;5.35;1.85;;;487.20;1459.20;;;;;;5072502;28;20039;-75
2022/05/18 13:07:59;;;;;;;6.05;2.75;;;487.30;1408.00;;;;;;5073906;28;20028;-75
2022/05/18 13:10:29;;;;;;;3.20;1.85;;;512.00;1408.00;;;;;;5072492;28;20035;-75
2022/05/18 13:12:58;;;;;;;5.05;2.58;;;512.00;1408.00;;;;;;5074207;28;20051;-75